createdAt,value
2019-03-08T00:01:52.624Z,6.80
2019-03-08T00:04:54.304Z,6.80
2019-03-08T00:07:55.637Z,6.90
2019-03-08T00:14:04.259Z,7.00
2019-03-08T00:17:05.192Z,6.90
2019-03-08T00:20:07.057Z,6.90
2019-03-08T00:23:07.095Z,6.90
2019-03-08T00:29:36.233Z,6.90
2019-03-08T00:32:37.290Z,6.90
2019-03-08T00:35:39.220Z,6.90
2019-03-08T00:38:40.307Z,6.90
2019-03-08T00:44:48.446Z,6.80
2019-03-08T00:47:50.241Z,6.70
2019-03-08T00:50:52.093Z,6.80
2019-03-08T00:53:53.481Z,6.70
2019-03-08T00:56:55.428Z,6.80
2019-03-08T00:59:56.614Z,6.80
2019-03-08T01:02:58.438Z,6.70
2019-03-08T01:06:01.155Z,6.60
2019-03-08T01:09:03.220Z,6.70
2019-03-08T01:15:12.002Z,6.70
2019-03-08T01:18:13.719Z,6.80
2019-03-08T01:21:15.054Z,6.90
2019-03-08T01:24:16.946Z,6.90
2019-03-08T01:27:18.270Z,6.90
2019-03-08T01:30:19.804Z,6.90
2019-03-08T01:33:21.679Z,6.80
2019-03-08T01:36:22.854Z,6.90
2019-03-08T01:39:24.291Z,7.00
2019-03-08T01:45:32.731Z,7.40
2019-03-08T01:48:33.676Z,7.60
2019-03-08T01:51:34.894Z,7.70
2019-03-08T01:54:42.686Z,7.70
2019-03-08T01:57:44.755Z,7.80
2019-03-08T02:00:49.192Z,7.90
2019-03-08T02:03:50.357Z,7.90
2019-03-08T02:06:51.475Z,7.90
2019-03-08T02:09:52.463Z,7.90
2019-03-08T02:16:01.451Z,7.90
2019-03-08T02:19:02.624Z,7.90
2019-03-08T02:22:02.479Z,7.80
2019-03-08T02:25:11.203Z,7.80
2019-03-08T02:28:12.329Z,7.80
2019-03-08T02:31:13.305Z,7.80
2019-03-08T02:34:13.332Z,7.80
2019-03-08T02:37:22.143Z,7.80
2019-03-08T02:40:23.601Z,7.70
2019-03-08T02:46:32.447Z,7.60
2019-03-08T02:49:35.339Z,7.70
2019-03-08T02:52:37.623Z,7.70
2019-03-08T02:55:39.035Z,7.70
2019-03-08T02:58:40.464Z,7.80
2019-03-08T03:01:41.893Z,7.80
2019-03-08T03:04:43.224Z,7.80
2019-03-08T03:07:44.844Z,7.90
2019-03-08T03:10:34.517Z,7.90
2019-03-08T03:19:51.200Z,7.90
2019-03-08T03:22:52.243Z,8.00
2019-03-08T03:25:53.778Z,8.00
2019-03-08T03:28:55.375Z,8.00
2019-03-08T03:31:56.399Z,8.00
2019-03-08T03:34:57.821Z,8.00
2019-03-08T03:37:59.036Z,7.90
2019-03-08T03:41:00.079Z,7.90
2019-03-08T03:44:07.512Z,7.90
2019-03-08T03:47:09.195Z,7.80
2019-03-08T03:50:11.049Z,7.80
2019-03-08T03:53:12.287Z,7.80
2019-03-08T03:56:14.502Z,7.80
2019-03-08T03:59:15.775Z,7.90
2019-03-08T04:02:17.804Z,7.90
2019-03-08T04:05:19.216Z,7.90
2019-03-08T04:08:20.227Z,7.90
2019-03-08T04:11:22.096Z,7.90
2019-03-08T04:14:29.131Z,7.90
2019-03-08T04:17:30.960Z,7.90
2019-03-08T04:20:32.584Z,7.90
2019-03-08T04:23:34.262Z,7.90
2019-03-08T04:26:35.772Z,7.90
2019-03-08T04:29:36.804Z,7.90
2019-03-08T04:32:36.670Z,7.90
2019-03-08T04:35:45.835Z,7.90
2019-03-08T04:38:46.895Z,7.90
2019-03-08T04:41:48.280Z,7.90
2019-03-08T04:44:55.828Z,7.90
2019-03-08T04:47:57.089Z,8.00
2019-03-08T04:50:58.156Z,8.00
2019-03-08T04:53:59.553Z,7.90
2019-03-08T04:57:01.530Z,7.90
2019-03-08T05:00:02.601Z,7.90
2019-03-08T05:03:04.604Z,7.90
2019-03-08T05:06:06.426Z,7.80
2019-03-08T05:09:08.066Z,7.70
2019-03-08T05:12:09.256Z,7.70
2019-03-08T05:15:16.585Z,7.70
2019-03-08T05:18:18.558Z,7.70
2019-03-08T05:21:18.524Z,7.70
2019-03-08T05:24:27.153Z,7.70
2019-03-08T05:27:28.223Z,7.70
2019-03-08T05:30:30.204Z,7.60
2019-03-08T05:33:32.077Z,7.70
2019-03-08T05:36:33.200Z,7.70
2019-03-08T05:39:34.783Z,7.60
2019-03-08T05:42:36.750Z,7.60
2019-03-08T05:45:44.033Z,7.60
2019-03-08T05:48:46.031Z,7.60
2019-03-08T05:51:47.015Z,7.60
2019-03-08T05:54:48.714Z,7.50
2019-03-08T05:57:50.661Z,7.50
2019-03-08T06:00:51.823Z,7.50
2019-03-08T06:03:53.123Z,7.50
2019-03-08T06:06:54.113Z,7.40
2019-03-08T06:09:55.383Z,7.40
2019-03-08T06:12:57.146Z,7.40
2019-03-08T06:16:04.225Z,7.40
2019-03-08T06:19:04.475Z,7.40
2019-03-08T06:21:53.967Z,7.40
2019-03-08T06:25:02.624Z,7.40
2019-03-08T06:28:04.483Z,7.30
2019-03-08T06:31:05.851Z,7.30
2019-03-08T06:34:07.366Z,7.30
2019-03-08T06:36:57.444Z,7.30
2019-03-08T06:39:46.936Z,7.30
2019-03-08T06:42:49.099Z,7.40
2019-03-08T06:45:50.605Z,7.40
2019-03-08T06:48:51.743Z,7.40
2019-03-08T06:51:53.168Z,7.40
2019-03-08T06:54:54.609Z,7.60
2019-03-08T06:57:56.495Z,7.70
2019-03-08T07:04:20.348Z,7.70
2019-03-08T07:10:24.511Z,9.10
2019-03-08T07:16:34.195Z,9.50
2019-03-08T07:19:40.950Z,9.70
2019-03-08T07:22:59.298Z,9.20
2019-03-08T07:26:11.013Z,8.70
2019-03-08T07:32:21.750Z,8.30
2019-03-08T07:35:30.708Z,8.20
2019-03-08T07:38:58.312Z,8.10
2019-03-08T07:42:06.625Z,8.10
2019-03-08T07:45:27.357Z,8.30
2019-03-08T07:48:44.668Z,8.30
2019-03-08T07:52:05.371Z,8.50
2019-03-08T07:55:25.475Z,8.30
2019-03-08T07:58:53.434Z,8.20
2019-03-08T08:02:04.803Z,8.30
2019-03-08T08:08:31.594Z,8.60
2019-03-08T08:11:51.891Z,8.50
2019-03-08T08:15:12.791Z,8.60
2019-03-08T08:18:28.580Z,8.60
2019-03-08T08:21:48.914Z,8.60
2019-03-08T08:25:09.886Z,8.70
2019-03-08T08:28:20.036Z,8.60
2019-03-08T08:31:40.422Z,8.70
2019-03-08T08:34:55.096Z,8.90
2019-03-08T08:38:15.260Z,9.10
2019-03-08T08:41:36.034Z,9.00
2019-03-08T08:44:43.253Z,8.90
2019-03-08T08:51:20.151Z,8.70
2019-03-08T08:54:40.261Z,8.70
2019-03-08T08:58:03.994Z,8.60
2019-03-08T09:01:33.679Z,8.80
2019-03-08T09:04:54.164Z,8.70
2019-03-08T09:08:14.280Z,8.60
2019-03-08T09:11:45.888Z,8.70
2019-03-08T09:18:06.069Z,8.80
2019-03-08T09:21:26.658Z,8.70
2019-03-08T09:24:37.039Z,8.60
2019-03-08T09:27:57.307Z,8.60
2019-03-08T09:31:08.528Z,8.80
2019-03-08T09:34:22.030Z,8.80
2019-03-08T09:37:42.526Z,9.10
2019-03-08T09:41:06.215Z,9.60
2019-03-08T09:44:27.779Z,9.90
2019-03-08T09:47:48.692Z,9.80
2019-03-08T10:01:16.851Z,10.70
2019-03-08T10:04:24.912Z,10.40
2019-03-08T10:07:39.596Z,10.50
2019-03-08T10:11:00.012Z,10.50
2019-03-08T10:14:13.162Z,10.80
2019-03-08T10:17:33.735Z,11.00
2019-03-08T10:20:54.033Z,10.90
2019-03-08T10:24:20.558Z,11.50
2019-03-08T10:27:41.251Z,11.40
2019-03-08T10:31:01.623Z,10.90
2019-03-08T10:34:24.833Z,10.30
2019-03-08T10:37:45.577Z,10.10
2019-03-08T10:41:12.216Z,9.80
2019-03-08T10:44:33.228Z,9.80
2019-03-08T10:47:56.264Z,9.90
2019-03-08T10:54:31.796Z,10.00
2019-03-08T10:57:52.698Z,10.20
2019-03-08T11:01:17.419Z,10.10
2019-03-08T11:04:42.179Z,10.00
2019-03-08T11:08:02.993Z,10.10
2019-03-08T11:11:16.711Z,10.40
2019-03-08T11:14:37.511Z,10.30
2019-03-08T11:17:58.562Z,10.30
2019-03-08T11:21:18.820Z,10.30
2019-03-08T11:31:07.388Z,10.90
2019-03-08T11:34:13.232Z,10.50
2019-03-08T11:37:25.431Z,10.30
2019-03-08T11:40:48.878Z,10.20
2019-03-08T11:43:57.797Z,10.20
2019-03-08T11:47:18.038Z,10.20
2019-03-08T11:54:10.332Z,10.20
2019-03-08T11:57:17.282Z,10.30
2019-03-08T12:07:37.712Z,10.20
2019-03-08T12:10:58.810Z,10.30
2019-03-08T12:14:19.817Z,10.40
2019-03-08T12:17:40.416Z,10.60
2019-03-08T12:24:26.724Z,10.90
2019-03-08T12:27:33.405Z,11.10
2019-03-08T12:30:56.819Z,11.60
2019-03-08T12:34:05.315Z,11.80
2019-03-08T12:37:25.618Z,12.50
2019-03-08T12:40:55.427Z,13.30
2019-03-08T12:44:14.323Z,13.50
2019-03-08T12:47:42.545Z,13.20
2019-03-08T12:50:55.540Z,12.40
2019-03-08T12:54:07.748Z,11.60
2019-03-08T13:07:37.520Z,11.50
2019-03-08T13:10:38.508Z,11.40
2019-03-08T13:13:45.083Z,11.30
2019-03-08T13:16:46.847Z,10.80
2019-03-08T13:19:48.981Z,10.90
2019-03-08T13:22:50.636Z,10.70
2019-03-08T13:25:57.884Z,10.70
2019-03-08T13:29:00.097Z,10.40
2019-03-08T13:32:01.605Z,9.20
2019-03-08T13:35:03.534Z,9.30
2019-03-08T13:38:04.609Z,9.20
2019-03-08T13:41:06.652Z,9.40
2019-03-08T13:44:08.583Z,9.80
2019-03-08T13:47:09.663Z,10.20
2019-03-08T14:03:16.483Z,10.20
2019-03-08T14:09:51.382Z,9.80
2019-03-08T14:12:53.077Z,9.80
2019-03-08T14:15:54.966Z,10.00
2019-03-08T14:18:56.525Z,10.00
2019-03-08T14:21:58.401Z,10.10
2019-03-08T14:24:59.788Z,9.90
2019-03-08T14:34:16.746Z,9.70
2019-03-08T14:37:19.846Z,9.80
2019-03-08T14:43:57.435Z,9.70
2019-03-08T14:47:24.603Z,9.70
2019-03-08T14:50:26.603Z,9.50
2019-03-08T14:53:32.616Z,8.80
2019-03-08T14:56:35.450Z,8.50
2019-03-08T15:02:49.183Z,7.40
2019-03-08T15:05:51.120Z,7.20
2019-03-08T15:08:55.077Z,7.40
2019-03-08T15:11:59.588Z,7.90
2019-03-08T15:15:02.520Z,8.10
2019-03-08T15:18:04.225Z,8.00
2019-03-08T15:21:06.025Z,7.90
2019-03-08T15:24:08.048Z,8.50
2019-03-08T15:27:09.747Z,9.60
2019-03-08T15:33:18.789Z,10.00
2019-03-08T15:36:20.637Z,9.50
2019-03-08T15:39:22.205Z,9.60
2019-03-08T15:42:24.480Z,9.90
2019-03-08T15:45:26.098Z,9.80
2019-03-08T15:48:27.446Z,9.40
2019-03-08T15:54:49.587Z,8.50
2019-03-08T15:57:51.613Z,8.40
2019-03-08T16:03:59.848Z,8.10
2019-03-08T16:07:01.559Z,7.70
2019-03-08T16:10:03.313Z,7.60
2019-03-08T16:13:05.273Z,7.40
2019-03-08T16:16:06.753Z,7.50
2019-03-08T16:19:08.592Z,7.50
2019-03-08T16:22:09.572Z,7.70
2019-03-08T16:25:10.781Z,8.00
2019-03-08T16:28:11.892Z,8.00
2019-03-08T16:34:42.299Z,7.90
2019-03-08T16:38:02.488Z,7.90
2019-03-08T16:41:29.444Z,7.90
2019-03-08T16:44:50.208Z,8.00
2019-03-08T16:48:11.644Z,8.00
2019-03-08T16:51:34.545Z,8.00
2019-03-08T16:54:42.620Z,7.90
2019-03-08T16:58:03.407Z,7.90
2019-03-08T17:01:23.764Z,7.90
2019-03-08T17:04:50.544Z,7.90
2019-03-08T17:08:10.912Z,7.80
2019-03-08T17:11:31.679Z,7.60
2019-03-08T17:14:53.112Z,7.40
2019-03-08T17:18:04.267Z,7.00
2019-03-08T17:21:24.989Z,6.80
2019-03-08T17:24:50.542Z,6.80
2019-03-08T17:27:58.525Z,6.80
2019-03-08T17:31:22.255Z,6.90
2019-03-08T17:34:38.435Z,6.90
2019-03-08T17:37:59.743Z,6.80
2019-03-08T17:41:16.473Z,6.70
2019-03-08T17:44:24.452Z,6.70
2019-03-08T17:47:45.349Z,6.70
2019-03-08T17:51:05.686Z,6.60
2019-03-08T17:54:26.122Z,6.70
2019-03-08T17:57:37.556Z,6.70
2019-03-08T18:07:55.544Z,6.90
2019-03-08T18:11:16.375Z,6.90
2019-03-08T18:18:03.166Z,6.90
2019-03-08T18:21:23.796Z,6.90
2019-03-08T18:24:46.109Z,6.90
2019-03-08T18:35:02.805Z,6.80
2019-03-08T18:38:16.898Z,6.70
2019-03-08T18:41:37.852Z,6.70
2019-03-08T18:44:58.116Z,6.70
2019-03-08T18:48:18.767Z,6.60
2019-03-08T18:51:27.687Z,6.60
2019-03-08T19:01:24.500Z,6.50
2019-03-08T19:04:44.866Z,6.50
2019-03-08T19:07:59.318Z,6.40
2019-03-08T19:11:12.560Z,6.30
2019-03-08T19:14:25.454Z,6.10
2019-03-08T19:17:46.043Z,5.90
2019-03-08T19:21:05.764Z,5.60
2019-03-08T19:27:47.357Z,5.70
2019-03-08T19:34:18.291Z,5.70
2019-03-08T19:41:06.632Z,5.90
2019-03-08T19:44:27.647Z,6.00
2019-03-08T19:47:47.819Z,5.90
2019-03-08T19:51:09.146Z,5.80
2019-03-08T19:54:34.436Z,5.70
2019-03-08T20:04:58.754Z,5.50
2019-03-08T20:08:06.678Z,5.40
2019-03-08T20:17:57.955Z,5.30
2019-03-08T20:21:09.515Z,5.30
2019-03-08T20:27:49.751Z,5.20
2019-03-08T20:31:07.483Z,5.20
2019-03-08T20:41:08.877Z,5.30
2019-03-08T20:44:16.067Z,5.20
2019-03-08T20:47:21.304Z,5.20
2019-03-08T20:50:22.989Z,5.10
2019-03-08T20:53:24.908Z,5.10
2019-03-08T20:56:26.219Z,5.10
2019-03-08T20:59:28.780Z,5.10
2019-03-08T21:02:30.176Z,5.10
2019-03-08T21:05:32.046Z,5.00
2019-03-08T21:11:41.169Z,5.10
2019-03-08T21:14:42.694Z,5.10
2019-03-08T21:17:43.998Z,5.10
2019-03-08T21:20:45.067Z,5.00
2019-03-08T21:23:46.344Z,5.10
2019-03-08T21:26:36.444Z,5.00
2019-03-08T21:32:59.873Z,5.10
2019-03-08T21:36:06.339Z,5.10
2019-03-08T21:42:22.033Z,5.00
2019-03-08T21:45:23.903Z,5.00
2019-03-08T21:48:13.831Z,4.90
2019-03-08T21:54:49.352Z,5.00
2019-03-08T21:57:50.577Z,5.00
2019-03-08T22:00:52.496Z,5.00
2019-03-08T22:07:23.871Z,5.00
2019-03-08T22:10:30.843Z,5.10
2019-03-08T22:13:32.478Z,5.10
2019-03-08T22:16:32.630Z,5.20
2019-03-08T22:23:08.106Z,5.10
2019-03-08T22:26:09.976Z,5.10
2019-03-08T22:29:11.992Z,5.10
2019-03-08T22:32:13.579Z,5.10
2019-03-08T22:35:15.143Z,5.20
2019-03-08T22:38:16.340Z,5.20
2019-03-08T22:41:23.673Z,5.20
2019-03-08T22:44:26.330Z,5.20
2019-03-08T22:47:27.968Z,5.20
2019-03-08T22:50:29.418Z,5.20
2019-03-08T22:53:30.894Z,5.20
2019-03-08T22:56:33.007Z,5.30
2019-03-08T22:59:34.740Z,5.30
2019-03-08T23:02:36.443Z,5.20
2019-03-08T23:05:38.062Z,5.30
2019-03-08T23:08:39.955Z,5.40
2019-03-08T23:11:47.234Z,5.40
2019-03-08T23:14:47.539Z,5.40
2019-03-08T23:17:49.163Z,5.40
2019-03-08T23:20:50.560Z,5.40
2019-03-08T23:23:57.252Z,5.30
2019-03-08T23:27:17.363Z,5.30
2019-03-08T23:30:22.764Z,5.30
2019-03-08T23:33:22.863Z,5.40
2019-03-08T23:36:31.379Z,5.30
2019-03-08T23:39:33.024Z,5.30
2019-03-08T23:45:41.592Z,5.40
2019-03-08T23:48:43.881Z,5.30
2019-03-08T23:51:45.413Z,5.20
2019-03-08T23:54:47.129Z,5.20
